Time;durP1;ratioP1;P1;durP2;ratioP2;P2;SDS_P1;SDS_P2;PMS_P1;PMS_P2;Temp;Humidity;BMP_temperature;BMP_pressure;BME280_temperature;BME280_humidity;BME280_pressure;Samples;Min_cycle;Max_cycle;Signal;HPM_P1;HPM_P2
2021/10/13 00:01:12;;;;;;;11.83;10.17;;;10.30;99.90;;;;;;5059923;28;20183;-59
2021/10/13 00:03:38;;;;;;;13.97;12.47;;;10.50;99.90;;;;;;5079516;28;20419;-62
2021/10/13 00:06:04;;;;;;;12.10;10.87;;;10.60;99.90;;;;;;5080624;28;20169;-62
2021/10/13 00:08:29;;;;;;;15.37;11.60;;;10.60;99.90;;;;;;5080171;28;20202;-62
2021/10/13 00:10:55;;;;;;;11.77;10.57;;;10.50;99.90;;;;;;5062167;28;20247;-62
2021/10/13 00:13:20;;;;;;;11.07;9.87;;;10.30;99.90;;;;;;5080653;28;20260;-62
2021/10/13 00:15:46;;;;;;;10.47;9.47;;;10.30;99.90;;;;;;5080515;28;20191;-62
2021/10/13 00:18:12;;;;;;;13.07;11.50;;;10.40;99.90;;;;;;5061675;28;20171;-62
2021/10/13 00:20:37;;;;;;;11.27;10.17;;;10.40;99.90;;;;;;5079543;28;20535;-62
2021/10/13 00:23:03;;;;;;;12.20;9.97;;;10.40;99.90;;;;;;5079858;28;20536;-62
2021/10/13 00:25:29;;;;;;;12.17;10.87;;;10.30;99.90;;;;;;5080178;28;20177;-61
2021/10/13 00:27:54;;;;;;;11.10;10.00;;;10.40;99.90;;;;;;5078856;28;20189;-62
2021/10/13 00:30:20;;;;;;;12.77;11.43;;;10.50;99.90;;;;;;5080069;28;20203;-62
2021/10/13 00:32:46;;;;;;;12.47;11.10;;;10.40;99.90;;;;;;5080174;28;20165;-62
2021/10/13 00:35:12;;;;;;;14.63;11.00;;;10.40;99.90;;;;;;5076505;28;20233;-62
2021/10/13 00:37:38;;;;;;;14.57;11.10;;;10.30;99.90;;;;;;5080439;28;20409;-62
2021/10/13 00:40:05;;;;;;;14.23;11.50;;;10.10;99.90;;;;;;5081623;28;20882;-62
2021/10/13 00:42:31;;;;;;;13.10;11.80;;;10.10;99.90;;;;;;5082334;28;20545;-62
2021/10/13 00:44:57;;;;;;;14.23;11.80;;;10.30;99.90;;;;;;5082289;28;20838;-62
2021/10/13 00:47:22;;;;;;;12.33;11.13;;;10.30;99.90;;;;;;5082065;28;20639;-62
2021/10/13 00:49:48;;;;;;;15.17;13.57;;;10.20;99.90;;;;;;5082125;28;20181;-62
2021/10/13 00:52:16;;;;;;;10.73;9.63;;;10.30;99.90;;;;;;5082589;28;20204;-62
2021/10/13 00:54:43;;;;;;;12.17;11.00;;;10.30;99.90;;;;;;5083430;28;20184;-62
2021/10/13 00:57:09;;;;;;;12.23;11.03;;;10.40;99.90;;;;;;5082398;28;20408;-62
2021/10/13 00:59:35;;;;;;;11.73;10.63;;;10.40;99.90;;;;;;5082401;28;21023;-62
2021/10/13 01:02:06;;;;;;;13.33;11.63;;;10.30;99.90;;;;;;5083322;28;20797;-62
2021/10/13 01:04:46;;;;;;;12.83;10.73;;;10.20;99.90;;;;;;5083448;28;20165;-62
2021/10/13 01:07:27;;;;;;;14.27;12.80;;;10.20;99.90;;;;;;5083111;28;20398;-62
2021/10/13 01:10:16;;;;;;;12.60;11.30;;;10.20;99.90;;;;;;5083338;28;20428;-62
2021/10/13 01:13:06;;;;;;;12.87;11.63;;;10.20;99.90;;;;;;5082828;28;20888;-62
2021/10/13 01:15:48;;;;;;;13.80;11.47;;;10.10;99.90;;;;;;5082266;28;20483;-62
2021/10/13 01:18:27;;;;;;;13.50;11.60;;;10.00;99.90;;;;;;5082466;28;20434;-61
2021/10/13 01:20:59;;;;;;;15.17;12.10;;;9.90;99.90;;;;;;5082468;28;20774;-62
2021/10/13 01:23:42;;;;;;;13.77;11.30;;;10.00;99.90;;;;;;5082271;28;20407;-61
2021/10/13 01:26:33;;;;;;;13.47;12.03;;;10.00;99.90;;;;;;5082355;28;20392;-62
2021/10/13 01:29:07;;;;;;;14.33;11.50;;;10.00;99.90;;;;;;5082271;28;20414;-62
2021/10/13 01:31:40;;;;;;;15.70;11.13;;;10.10;99.90;;;;;;5082790;28;20458;-61
2021/10/13 01:34:18;;;;;;;11.10;10.03;;;10.20;99.90;;;;;;5081937;28;20505;-62
2021/10/13 01:36:51;;;;;;;12.20;11.00;;;10.20;99.90;;;;;;5081705;28;20384;-62
2021/10/13 01:39:17;;;;;;;12.17;10.93;;;10.30;99.90;;;;;;5081900;28;20451;-62
2021/10/13 01:41:45;;;;;;;11.77;10.67;;;10.20;99.90;;;;;;5081523;28;20958;-62
2021/10/13 01:44:14;;;;;;;10.30;9.20;;;10.20;99.90;;;;;;5081460;28;20412;-62
2021/10/13 01:46:44;;;;;;;12.03;10.83;;;10.20;99.90;;;;;;5082018;28;20553;-60
2021/10/13 01:49:11;;;;;;;11.70;10.50;;;10.20;99.90;;;;;;5082123;28;20403;-62
2021/10/13 01:51:38;;;;;;;12.27;10.27;;;10.20;99.90;;;;;;5082040;28;20488;-62
2021/10/13 01:54:06;;;;;;;10.23;9.13;;;10.10;99.90;;;;;;5082620;28;20477;-62
2021/10/13 01:56:33;;;;;;;10.57;8.90;;;10.30;99.90;;;;;;5081775;28;20786;-62
2021/10/13 01:59:05;;;;;;;10.90;9.70;;;10.30;99.90;;;;;;5082000;28;20410;-62
2021/10/13 02:01:33;;;;;;;12.07;10.40;;;10.20;99.90;;;;;;5081574;28;20432;-62
2021/10/13 02:04:03;;;;;;;10.27;8.73;;;10.20;99.90;;;;;;5081477;28;20408;-62
2021/10/13 02:06:32;;;;;;;12.80;10.40;;;10.20;99.90;;;;;;5081302;28;20497;-61
2021/10/13 02:08:59;;;;;;;11.20;9.57;;;10.00;99.90;;;;;;5081617;28;20497;-62
2021/10/13 02:11:26;;;;;;;11.23;9.97;;;10.10;99.90;;;;;;5080521;28;20846;-62
2021/10/13 02:13:54;;;;;;;11.73;8.97;;;10.30;99.90;;;;;;5080371;28;20850;-62
2021/10/13 02:16:22;;;;;;;9.00;8.20;;;10.30;99.90;;;;;;5080443;28;20407;-62
2021/10/13 02:18:49;;;;;;;10.13;9.13;;;10.00;99.90;;;;;;5081009;28;20408;-62
2021/10/13 02:21:19;;;;;;;13.10;11.70;;;9.80;99.90;;;;;;5080533;28;20456;-62
2021/10/13 02:23:46;;;;;;;11.63;9.20;;;9.80;99.90;;;;;;5080012;28;20814;-62
2021/10/13 02:26:22;;;;;;;12.00;9.43;;;9.90;99.90;;;;;;5080052;28;20766;-62
2021/10/13 02:28:54;;;;;;;10.83;9.73;;;10.00;99.90;;;;;;5072921;28;20427;-62
2021/10/13 02:31:19;;;;;;;12.00;8.90;;;10.00;99.90;;;;;;5075237;28;20851;-61
2021/10/13 02:33:45;;;;;;;10.00;9.00;;;10.00;99.90;;;;;;5080607;28;20496;-61
2021/10/13 02:36:11;;;;;;;11.17;9.40;;;10.10;99.90;;;;;;5079804;28;20205;-62
2021/10/13 02:38:36;;;;;;;10.80;9.70;;;10.10;99.90;;;;;;5080606;28;20174;-62
2021/10/13 02:41:02;;;;;;;10.30;9.30;;;10.00;99.90;;;;;;5077309;28;20196;-62
2021/10/13 02:43:28;;;;;;;9.80;8.80;;;10.10;99.90;;;;;;5063117;28;20539;-62
2021/10/13 02:46:06;;;;;;;11.10;9.43;;;10.10;99.90;;;;;;5081499;28;20240;-62
2021/10/13 02:48:33;;;;;;;10.13;8.87;;;10.00;99.90;;;;;;5080826;28;20434;-62
2021/10/13 02:51:13;;;;;;;10.20;9.20;;;9.90;99.90;;;;;;5102475;22;20498;-59
2021/10/13 02:53:47;;;;;;;12.33;9.90;;;10.10;99.90;;;;;;5093425;28;20443;-59
2021/10/13 02:56:18;;;;;;;10.90;9.80;;;10.00;99.90;;;;;;5091801;28;20447;-61
2021/10/13 02:59:02;;;;;;;12.00;9.57;;;9.90;99.90;;;;;;5090136;28;20443;-59
2021/10/13 03:01:42;;;;;;;12.50;10.00;;;9.90;99.90;;;;;;5091724;28;20786;-60
2021/10/13 03:04:14;;;;;;;10.93;9.83;;;9.90;99.90;;;;;;5093436;28;20390;-61
2021/10/13 03:07:04;;;;;;;12.00;10.20;;;10.00;99.90;;;;;;5093171;28;20451;-61
2021/10/13 03:09:33;;;;;;;11.50;9.80;;;10.10;99.90;;;;;;5093598;28;20414;-60
2021/10/13 03:12:02;;;;;;;10.53;9.43;;;9.90;99.90;;;;;;5093238;28;20455;-61
2021/10/13 03:14:29;;;;;;;9.80;8.20;;;9.90;99.90;;;;;;5093421;28;20406;-60
2021/10/13 03:16:55;;;;;;;11.00;9.90;;;9.90;99.90;;;;;;5093239;28;20402;-60
2021/10/13 03:19:22;;;;;;;10.27;9.27;;;10.00;99.90;;;;;;5093487;28;20409;-60
2021/10/13 03:21:50;;;;;;;11.97;10.83;;;10.00;99.90;;;;;;5093281;28;20437;-61
2021/10/13 03:24:16;;;;;;;12.53;10.27;;;10.10;99.90;;;;;;5093730;28;20410;-61
2021/10/13 03:26:49;;;;;;;12.07;10.43;;;10.00;99.90;;;;;;5093482;28;20411;-60
2021/10/13 03:29:15;;;;;;;11.63;9.43;;;9.90;99.90;;;;;;5092999;28;20391;-61
2021/10/13 03:31:41;;;;;;;9.53;8.47;;;9.80;99.90;;;;;;5093009;28;20497;-61
2021/10/13 03:34:08;;;;;;;11.50;9.47;;;9.90;99.90;;;;;;5091946;28;20423;-60
2021/10/13 03:36:42;;;;;;;10.30;9.30;;;10.00;99.90;;;;;;5093109;28;20570;-61
2021/10/13 03:39:09;;;;;;;10.83;9.77;;;9.90;99.90;;;;;;5093367;28;20383;-60
2021/10/13 03:41:35;;;;;;;11.27;9.53;;;10.00;99.90;;;;;;5093159;28;20427;-61
2021/10/13 03:44:00;;;;;;;11.73;9.90;;;10.10;99.90;;;;;;5093289;28;20406;-61
2021/10/13 03:46:26;;;;;;;16.90;12.40;;;10.00;99.90;;;;;;5093028;28;20572;-61
2021/10/13 03:48:52;;;;;;;12.33;10.90;;;10.00;99.90;;;;;;5092503;28;20235;-61
2021/10/13 03:51:19;;;;;;;13.90;9.93;;;10.10;99.90;;;;;;5092733;28;20581;-61
2021/10/13 03:53:44;;;;;;;11.90;9.53;;;10.00;99.90;;;;;;5092979;28;20379;-60
2021/10/13 03:56:11;;;;;;;10.67;9.57;;;10.10;99.90;;;;;;5092911;28;20422;-61
2021/10/13 03:58:37;;;;;;;11.17;10.07;;;10.00;99.90;;;;;;5093107;28;20168;-61
2021/10/13 04:01:03;;;;;;;12.83;10.43;;;10.00;99.90;;;;;;5092775;28;20400;-59
2021/10/13 04:03:28;;;;;;;12.00;10.60;;;10.00;99.90;;;;;;5093142;28;20681;-60
2021/10/13 04:05:54;;;;;;;9.70;8.73;;;10.20;99.90;;;;;;5092580;28;20409;-60
2021/10/13 04:08:19;;;;;;;11.37;9.20;;;10.20;99.90;;;;;;5093074;28;20222;-61
2021/10/13 04:10:45;;;;;;;10.17;9.13;;;10.00;99.90;;;;;;5092612;28;20203;-59
2021/10/13 04:13:11;;;;;;;12.33;10.37;;;10.10;99.90;;;;;;5093114;28;20700;-59
2021/10/13 04:15:36;;;;;;;11.60;10.40;;;10.10;99.90;;;;;;5095700;28;20185;-61
2021/10/13 04:18:04;;;;;;;11.20;9.93;;;10.10;99.90;;;;;;5096950;28;20606;-60
2021/10/13 04:20:30;;;;;;;13.23;9.60;;;10.30;99.90;;;;;;5096029;28;20158;-58
2021/10/13 04:22:56;;;;;;;12.90;10.10;;;10.10;99.90;;;;;;5096666;28;20455;-57
2021/10/13 04:25:21;;;;;;;11.43;9.67;;;10.10;99.90;;;;;;5096540;28;20955;-60
2021/10/13 04:27:47;;;;;;;11.40;9.67;;;10.10;99.90;;;;;;5096568;28;20398;-58
2021/10/13 04:30:13;;;;;;;15.83;11.97;;;10.10;99.90;;;;;;5095333;28;20193;-60
2021/10/13 04:32:38;;;;;;;14.27;10.27;;;10.10;99.90;;;;;;5094302;28;20188;-58
2021/10/13 04:35:05;;;;;;;13.10;11.80;;;10.00;99.90;;;;;;5095832;28;20175;-59
2021/10/13 04:37:30;;;;;;;13.10;11.33;;;10.00;99.90;;;;;;5096208;28;20522;-60
2021/10/13 04:39:56;;;;;;;12.60;10.90;;;9.90;99.90;;;;;;5096744;28;20412;-61
2021/10/13 04:42:21;;;;;;;15.37;11.47;;;9.80;99.90;;;;;;5096127;28;20195;-61
2021/10/13 04:44:47;;;;;;;14.50;11.30;;;9.90;99.90;;;;;;5096335;28;20168;-61
2021/10/13 04:47:13;;;;;;;14.00;11.50;;;9.80;99.90;;;;;;5096376;28;20498;-61
2021/10/13 04:49:38;;;;;;;13.60;11.97;;;9.60;99.90;;;;;;5095545;28;20162;-61
2021/10/13 04:52:04;;;;;;;15.60;12.97;;;9.60;99.90;;;;;;5096114;28;20239;-61
2021/10/13 04:54:30;;;;;;;15.57;13.63;;;9.60;99.90;;;;;;5096158;28;20259;-59
2021/10/13 04:56:55;;;;;;;19.87;14.50;;;9.70;99.90;;;;;;5096192;28;20233;-60
2021/10/13 04:59:21;;;;;;;18.67;12.90;;;9.70;99.90;;;;;;5095879;28;20626;-59
2021/10/13 05:01:46;;;;;;;17.53;11.93;;;9.90;99.90;;;;;;5095397;28;20192;-61
2021/10/13 05:04:12;;;;;;;14.00;11.90;;;9.90;99.90;;;;;;5094925;28;20214;-61
2021/10/13 05:06:37;;;;;;;16.43;13.60;;;10.00;99.90;;;;;;5095343;28;20173;-60
2021/10/13 05:09:03;;;;;;;14.17;12.33;;;10.10;99.90;;;;;;5095362;28;20594;-59
2021/10/13 05:11:29;;;;;;;15.13;11.73;;;10.10;99.90;;;;;;5095169;28;20211;-60
2021/10/13 05:13:54;;;;;;;17.90;13.03;;;10.10;99.90;;;;;;5095974;28;20171;-61
2021/10/13 05:16:20;;;;;;;12.30;10.23;;;10.20;99.90;;;;;;5095722;28;20173;-61
2021/10/13 05:18:45;;;;;;;11.93;9.67;;;10.10;99.90;;;;;;5095195;28;20197;-60
2021/10/13 05:21:11;;;;;;;11.17;9.80;;;10.00;99.90;;;;;;5094839;28;20289;-60
2021/10/13 05:23:36;;;;;;;14.10;10.17;;;10.00;99.90;;;;;;5095235;28;20238;-60
2021/10/13 05:26:03;;;;;;;10.83;9.30;;;10.00;99.90;;;;;;5094110;28;20578;-61
2021/10/13 05:28:28;;;;;;;13.70;10.07;;;10.10;99.90;;;;;;5095317;28;20176;-61
2021/10/13 05:30:54;;;;;;;11.57;10.33;;;10.10;99.90;;;;;;5095127;28;20443;-61
2021/10/13 05:33:20;;;;;;;15.97;11.80;;;10.00;99.90;;;;;;5095259;28;20161;-63
2021/10/13 05:35:45;;;;;;;11.00;9.50;;;9.90;99.90;;;;;;5094647;28;20263;-60
2021/10/13 05:38:11;;;;;;;17.20;12.00;;;10.10;99.90;;;;;;5094950;28;20161;-61
2021/10/13 05:40:36;;;;;;;9.90;8.90;;;10.10;99.90;;;;;;5094752;28;20175;-60
2021/10/13 05:43:02;;;;;;;13.03;11.03;;;10.10;99.90;;;;;;5094774;28;20203;-61
2021/10/13 05:45:28;;;;;;;13.40;10.40;;;10.10;99.90;;;;;;5094670;28;20510;-61
2021/10/13 05:47:53;;;;;;;11.97;10.00;;;10.10;99.90;;;;;;5076461;28;20180;-61
2021/10/13 05:50:19;;;;;;;10.17;9.10;;;9.90;99.90;;;;;;5094283;28;20203;-61
2021/10/13 05:52:44;;;;;;;11.07;9.10;;;9.80;99.90;;;;;;5087662;28;20727;-61
2021/10/13 05:55:10;;;;;;;11.60;8.80;;;9.90;99.90;;;;;;5077653;28;20176;-61
2021/10/13 05:57:37;;;;;;;14.70;10.77;;;10.00;99.90;;;;;;5074356;28;20259;-61
2021/10/13 06:00:05;;;;;;;11.47;10.17;;;10.10;99.90;;;;;;5074503;28;20634;-61
2021/10/13 06:02:33;;;;;;;12.60;10.30;;;10.10;99.90;;;;;;5074337;28;20921;-61
2021/10/13 06:04:59;;;;;;;10.77;9.63;;;10.10;99.90;;;;;;5087737;28;20453;-58
2021/10/13 06:07:24;;;;;;;17.10;13.73;;;10.20;99.90;;;;;;5094394;28;20395;-59
2021/10/13 06:09:50;;;;;;;13.50;9.70;;;10.30;99.90;;;;;;5076006;28;20652;-59
2021/10/13 06:12:15;;;;;;;12.73;10.40;;;10.30;99.90;;;;;;5094248;28;20362;-59
2021/10/13 06:14:41;;;;;;;10.43;9.40;;;10.30;99.90;;;;;;5094092;28;20200;-59
2021/10/13 06:17:07;;;;;;;14.53;9.17;;;10.40;99.90;;;;;;5094066;28;20173;-59
2021/10/13 06:19:33;;;;;;;11.83;9.27;;;10.30;99.90;;;;;;5093542;28;20179;-58
2021/10/13 06:21:58;;;;;;;9.50;8.57;;;10.30;99.90;;;;;;5094194;28;20275;-60
2021/10/13 06:24:24;;;;;;;12.47;10.63;;;10.10;99.90;;;;;;5094526;28;20801;-59
2021/10/13 06:26:49;;;;;;;12.03;10.80;;;10.00;99.90;;;;;;5093804;28;20587;-59
2021/10/13 06:29:15;;;;;;;11.17;9.07;;;10.20;99.90;;;;;;5094240;28;20248;-60
2021/10/13 06:31:41;;;;;;;15.60;10.00;;;10.00;99.90;;;;;;5090347;28;20684;-60
2021/10/13 06:34:06;;;;;;;15.70;11.80;;;10.20;99.90;;;;;;5093189;28;20173;-58
2021/10/13 06:36:32;;;;;;;14.57;11.63;;;10.30;99.90;;;;;;5093518;28;20173;-56
2021/10/13 06:38:57;;;;;;;18.20;12.67;;;10.30;99.90;;;;;;5093677;28;20273;-59
2021/10/13 06:41:26;;;;;;;17.47;11.97;;;10.20;99.90;;;;;;5093574;28;20213;-58
2021/10/13 06:43:52;;;;;;;10.40;8.77;;;10.40;99.90;;;;;;5093320;28;20235;-59
2021/10/13 06:46:17;;;;;;;9.73;8.70;;;10.20;99.90;;;;;;5093590;28;20412;-59
2021/10/13 06:48:43;;;;;;;13.40;10.53;;;10.40;99.90;;;;;;5093686;28;20177;-57
2021/10/13 06:51:09;;;;;;;11.57;8.60;;;10.40;99.90;;;;;;5092753;28;20208;-59
2021/10/13 06:53:34;;;;;;;11.40;9.00;;;10.40;99.90;;;;;;5093821;28;20165;-58
2021/10/13 06:56:00;;;;;;;11.53;9.90;;;10.30;99.90;;;;;;5094080;28;20164;-60
2021/10/13 06:58:26;;;;;;;9.90;8.80;;;10.30;99.90;;;;;;5093444;28;20200;-60
2021/10/13 07:00:52;;;;;;;11.43;9.70;;;10.50;99.90;;;;;;5093331;28;20415;-59
2021/10/13 07:03:17;;;;;;;11.17;9.40;;;10.70;99.90;;;;;;5093461;28;20168;-60
2021/10/13 07:05:43;;;;;;;8.90;8.00;;;10.70;99.90;;;;;;5092900;28;20185;-60
2021/10/13 07:08:09;;;;;;;12.13;9.53;;;10.80;99.90;;;;;;5093322;28;20172;-60
2021/10/13 07:10:35;;;;;;;13.57;10.50;;;10.80;99.90;;;;;;5093342;28;20446;-59
2021/10/13 07:13:00;;;;;;;10.70;8.70;;;11.00;99.90;;;;;;5093445;28;20703;-59
2021/10/13 07:15:26;;;;;;;9.43;7.80;;;10.80;99.90;;;;;;5093321;28;20514;-60
2021/10/13 07:17:52;;;;;;;9.90;8.10;;;10.80;99.90;;;;;;5092996;28;20170;-60
2021/10/13 07:20:18;;;;;;;8.90;7.33;;;10.80;99.90;;;;;;5092595;28;20231;-60
2021/10/13 07:22:43;;;;;;;9.50;8.00;;;11.00;99.90;;;;;;5093215;28;20434;-59
2021/10/13 07:25:10;;;;;;;9.37;7.60;;;11.10;99.90;;;;;;5074786;28;20598;-60
2021/10/13 07:27:36;;;;;;;6.97;6.27;;;11.00;99.90;;;;;;5092982;28;20189;-60
2021/10/13 07:30:04;;;;;;;9.30;6.80;;;11.00;99.90;;;;;;5093026;28;20439;-60
2021/10/13 07:32:32;;;;;;;10.37;7.50;;;11.00;99.90;;;;;;5093252;28;20476;-60
2021/10/13 07:34:58;;;;;;;10.10;7.27;;;11.10;99.90;;;;;;5092740;28;20426;-60
2021/10/13 07:37:24;;;;;;;11.27;7.70;;;11.30;99.90;;;;;;5092961;28;20421;-61
2021/10/13 07:39:50;;;;;;;7.47;5.60;;;11.50;99.90;;;;;;5093009;28;20165;-60
2021/10/13 07:42:17;;;;;;;7.67;6.53;;;11.20;99.90;;;;;;5093061;28;20473;-60
2021/10/13 07:44:44;;;;;;;8.67;6.87;;;11.20;99.90;;;;;;5092953;28;20916;-60
2021/10/13 07:47:10;;;;;;;11.50;7.80;;;11.30;99.90;;;;;;5092906;28;20419;-61
2021/10/13 07:49:37;;;;;;;9.40;7.93;;;11.20;99.90;;;;;;5093623;28;20399;-60
2021/10/13 07:52:04;;;;;;;8.33;7.10;;;11.30;99.90;;;;;;5096881;28;20499;-59
2021/10/13 07:54:30;;;;;;;8.43;7.50;;;11.30;99.90;;;;;;5097031;28;20407;-61
2021/10/13 07:56:56;;;;;;;9.27;8.03;;;11.20;99.90;;;;;;5096878;28;20404;-61
2021/10/13 07:59:22;;;;;;;11.07;8.20;;;11.10;99.90;;;;;;5096911;28;20964;-61
2021/10/13 08:01:47;;;;;;;8.43;7.30;;;11.20;99.90;;;;;;5096766;28;20189;-61
2021/10/13 08:04:13;;;;;;;11.77;8.47;;;11.10;99.90;;;;;;5096644;28;20186;-59
2021/10/13 08:06:38;;;;;;;10.93;7.73;;;11.00;99.90;;;;;;5096543;28;20169;-55
2021/10/13 08:09:04;;;;;;;12.37;8.17;;;11.00;99.90;;;;;;5096761;28;20170;-60
2021/10/13 08:11:30;;;;;;;10.73;7.67;;;11.10;99.90;;;;;;5096629;28;20205;-59
2021/10/13 08:13:55;;;;;;;10.03;8.90;;;10.80;99.90;;;;;;5096735;28;20256;-59
2021/10/13 08:16:21;;;;;;;9.93;8.10;;;10.90;99.90;;;;;;5096599;28;20208;-59
2021/10/13 08:18:46;;;;;;;8.30;7.30;;;10.90;99.90;;;;;;5096635;28;20174;-60
2021/10/13 08:21:12;;;;;;;9.87;7.90;;;11.10;99.90;;;;;;5096054;28;20193;-60
2021/10/13 08:23:38;;;;;;;8.37;7.40;;;11.30;99.90;;;;;;5096699;28;20184;-61
2021/10/13 08:26:03;;;;;;;7.90;7.10;;;11.30;99.90;;;;;;5095342;28;20174;-58
2021/10/13 08:28:30;;;;;;;10.80;8.53;;;11.30;99.90;;;;;;5093948;28;20177;-61
2021/10/13 08:30:57;;;;;;;13.70;8.70;;;11.50;99.90;;;;;;5096274;28;20193;-60
2021/10/13 08:33:23;;;;;;;12.73;8.60;;;11.40;99.90;;;;;;5096307;28;20436;-61
2021/10/13 08:35:49;;;;;;;10.47;8.97;;;11.50;99.90;;;;;;5095798;28;20411;-60
2021/10/13 08:38:15;;;;;;;10.93;8.93;;;11.50;99.90;;;;;;5096292;28;20471;-61
2021/10/13 08:40:41;;;;;;;12.37;9.60;;;11.50;99.90;;;;;;5096472;28;20230;-61
2021/10/13 08:43:07;;;;;;;13.33;10.60;;;11.50;99.90;;;;;;5095920;28;21022;-61
2021/10/13 08:45:34;;;;;;;14.63;10.80;;;11.70;99.90;;;;;;5087383;28;20503;-60
2021/10/13 08:48:01;;;;;;;12.23;9.40;;;11.60;99.90;;;;;;5093023;28;20177;-59
2021/10/13 08:50:28;;;;;;;12.73;10.10;;;11.60;99.90;;;;;;5095411;28;20949;-61
2021/10/13 08:53:07;;;;;;;14.50;10.57;;;11.70;99.90;;;;;;5103707;22;20487;-61
2021/10/13 08:55:34;;;;;;;13.20;10.47;;;11.70;99.90;;;;;;5076019;28;20476;-61
2021/10/13 08:58:12;;;;;;;12.90;11.10;;;11.70;99.90;;;;;;5075927;28;20447;-61
2021/10/13 09:00:39;;;;;;;18.93;12.30;;;11.90;99.90;;;;;;5075713;28;20392;-61
2021/10/13 09:03:05;;;;;;;18.00;13.03;;;11.60;99.90;;;;;;5075820;28;20422;-61
2021/10/13 09:05:30;;;;;;;14.83;12.10;;;11.50;99.90;;;;;;5075705;28;20408;-61
2021/10/13 09:07:59;;;;;;;20.50;12.63;;;11.50;99.90;;;;;;5075352;28;20162;-61
2021/10/13 09:10:35;;;;;;;13.93;11.53;;;11.60;99.90;;;;;;5075361;28;20201;-60
2021/10/13 09:13:03;;;;;;;15.43;11.03;;;11.80;99.90;;;;;;5075618;28;20429;-62
2021/10/13 09:15:31;;;;;;;14.20;10.70;;;11.80;99.90;;;;;;5075792;28;20397;-62
2021/10/13 09:18:07;;;;;;;13.80;10.00;;;11.90;99.90;;;;;;5075770;28;20531;-61
2021/10/13 09:20:36;;;;;;;12.30;9.10;;;12.10;99.90;;;;;;5075803;28;20822;-62
2021/10/13 09:23:15;;;;;;;12.43;9.30;;;12.20;99.90;;;;;;5075305;28;20441;-62
2021/10/13 09:25:41;;;;;;;16.03;11.30;;;12.40;99.90;;;;;;5075562;28;20410;-62
2021/10/13 09:28:07;;;;;;;12.50;9.00;;;12.50;99.90;;;;;;5075536;28;20422;-61
2021/10/13 09:30:39;;;;;;;9.67;7.83;;;12.50;99.90;;;;;;5075273;28;20440;-61
2021/10/13 09:33:17;;;;;;;9.53;6.60;;;12.40;99.90;;;;;;5075300;28;20428;-61
2021/10/13 09:35:48;;;;;;;9.47;6.60;;;12.60;99.90;;;;;;5075716;28;20428;-62
2021/10/13 09:38:20;;;;;;;7.17;5.97;;;12.60;99.90;;;;;;5075241;28;20474;-61
2021/10/13 09:40:47;;;;;;;9.07;6.33;;;12.40;99.90;;;;;;5075379;28;20388;-62
2021/10/13 09:43:36;;;;;;;5.93;4.50;;;12.60;99.90;;;;;;5074939;28;20474;-61
2021/10/13 09:46:01;;;;;;;12.17;5.40;;;12.90;99.90;;;;;;5074944;28;20422;-61
2021/10/13 09:48:27;;;;;;;6.17;3.97;;;13.10;99.90;;;;;;5075188;28;20400;-61
2021/10/13 09:50:53;;;;;;;5.40;3.30;;;13.50;99.90;;;;;;5074996;28;20196;-61
2021/10/13 09:53:25;;;;;;;4.40;3.03;;;13.10;99.90;;;;;;5074138;28;20585;-61
2021/10/13 09:55:51;;;;;;;4.70;2.70;;;13.00;99.90;;;;;;5075058;28;20563;-59
2021/10/13 09:58:25;;;;;;;6.77;3.80;;;13.00;99.90;;;;;;5074898;28;20496;-61
2021/10/13 10:01:17;;;;;;;5.60;3.93;;;13.10;99.90;;;;;;5074936;28;20402;-62
2021/10/13 10:03:45;;;;;;;10.17;4.87;;;12.70;99.90;;;;;;5075048;28;20375;-62
2021/10/13 10:06:12;;;;;;;11.30;5.10;;;12.40;99.90;;;;;;5075101;28;20439;-62
2021/10/13 10:09:04;;;;;;;8.20;5.10;;;12.60;99.90;;;;;;5074022;28;20913;-61
2021/10/13 10:11:39;;;;;;;9.53;6.40;;;12.70;99.90;;;;;;5067311;28;20840;-61
2021/10/13 10:14:37;;;;;;;8.40;4.90;;;13.00;99.90;;;;;;5074267;28;20400;-62
2021/10/13 10:17:05;;;;;;;11.50;5.77;;;13.10;99.90;;;;;;5074745;28;20369;-62
2021/10/13 10:19:39;;;;;;;7.80;5.80;;;13.40;99.90;;;;;;5074507;28;20405;-60
2021/10/13 10:22:16;;;;;;;10.07;5.83;;;13.30;99.90;;;;;;5074568;28;20817;-61
2021/10/13 10:24:44;;;;;;;7.47;5.93;;;13.60;99.90;;;;;;5073868;28;20413;-60
2021/10/13 10:27:29;;;;;;;12.27;7.10;;;13.70;99.90;;;;;;5074385;28;20410;-58
2021/10/13 10:30:09;;;;;;;7.40;5.90;;;13.70;99.90;;;;;;5074745;28;20401;-61
2021/10/13 10:33:05;;;;;;;7.50;6.70;;;14.00;99.90;;;;;;5073070;28;20449;-60
2021/10/13 10:35:43;;;;;;;8.23;6.03;;;14.50;99.90;;;;;;5074287;28;20402;-62
2021/10/13 10:38:10;;;;;;;8.23;6.63;;;14.30;99.90;;;;;;5074042;28;20418;-62
2021/10/13 10:40:40;;;;;;;9.23;6.90;;;14.20;99.90;;;;;;5073703;28;20403;-62
2021/10/13 10:43:07;;;;;;;9.07;6.10;;;14.30;99.90;;;;;;5055948;28;21006;-61
2021/10/13 10:45:39;;;;;;;8.20;6.30;;;13.80;99.90;;;;;;5074419;28;20909;-62
2021/10/13 10:48:08;;;;;;;6.77;6.17;;;13.80;99.90;;;;;;5073828;28;20375;-62
2021/10/13 10:50:41;;;;;;;7.60;6.10;;;13.70;99.90;;;;;;5073879;28;20445;-62
2021/10/13 10:53:31;;;;;;;7.27;5.23;;;13.70;99.90;;;;;;5073686;28;20963;-60
2021/10/13 10:56:17;;;;;;;7.03;4.27;;;13.80;99.90;;;;;;5073607;28;20379;-62
2021/10/13 10:59:01;;;;;;;7.43;4.87;;;13.60;99.90;;;;;;5074589;28;20476;-61
2021/10/13 11:01:27;;;;;;;9.67;7.50;;;13.10;99.90;;;;;;5073868;28;20517;-61
2021/10/13 11:03:52;;;;;;;10.80;9.67;;;12.80;99.90;;;;;;5073539;28;20407;-62
2021/10/13 11:06:23;;;;;;;13.60;9.80;;;12.70;99.90;;;;;;5073677;28;20407;-62
2021/10/13 11:08:59;;;;;;;12.17;10.97;;;12.80;99.90;;;;;;5073299;28;20163;-62
2021/10/13 11:11:28;;;;;;;12.70;11.10;;;12.90;99.90;;;;;;5073718;28;20475;-62
2021/10/13 11:13:55;;;;;;;13.07;9.80;;;12.90;99.90;;;;;;5073645;28;20402;-62
2021/10/13 11:16:21;;;;;;;9.13;7.27;;;13.00;99.90;;;;;;5074182;28;20461;-62
2021/10/13 11:18:47;;;;;;;11.67;6.40;;;13.50;99.90;;;;;;5073633;28;20512;-62
2021/10/13 11:21:14;;;;;;;6.43;5.60;;;13.90;99.90;;;;;;5074262;28;20183;-62
2021/10/13 11:23:39;;;;;;;9.63;5.67;;;15.10;99.90;;;;;;5072313;28;20173;-61
2021/10/13 11:26:05;;;;;;;15.23;5.70;;;16.90;99.90;;;;;;5074122;28;20410;-61
2021/10/13 11:28:36;;;;;;;5.20;4.60;;;19.00;99.90;;;;;;5074562;28;20177;-61
2021/10/13 11:31:09;;;;;;;5.07;3.00;;;19.60;96.50;;;;;;5073769;28;20213;-62
2021/10/13 11:33:35;;;;;;;3.50;3.20;;;20.50;93.80;;;;;;5073721;28;20453;-62
2021/10/13 11:36:03;;;;;;;5.20;4.20;;;21.10;91.60;;;;;;5073995;28;20789;-62
2021/10/13 11:38:32;;;;;;;6.13;4.23;;;19.90;92.70;;;;;;5066491;28;20170;-62
2021/10/13 11:41:14;;;;;;;8.43;5.10;;;18.20;95.50;;;;;;5055162;28;20424;-62
2021/10/13 11:43:42;;;;;;;7.23;5.10;;;16.70;98.30;;;;;;5053474;28;20448;-61
2021/10/13 11:46:13;;;;;;;4.97;4.53;;;15.60;99.90;;;;;;5053229;28;20408;-62
2021/10/13 11:48:39;;;;;;;5.37;4.10;;;14.70;99.90;;;;;;5053590;28;20393;-62
2021/10/13 11:51:14;;;;;;;4.50;3.90;;;13.90;99.90;;;;;;5053228;28;20550;-62
2021/10/13 11:53:41;;;;;;;5.87;4.70;;;13.10;99.90;;;;;;5061228;28;20175;-57
2021/10/13 11:56:13;;;;;;;7.37;4.80;;;13.00;99.90;;;;;;5073466;28;20883;-59
2021/10/13 11:58:41;;;;;;;5.47;3.93;;;13.10;99.90;;;;;;5073165;28;20448;-60
2021/10/13 12:01:07;;;;;;;4.50;3.80;;;13.20;99.90;;;;;;5073064;28;20402;-60
2021/10/13 12:03:34;;;;;;;6.07;3.30;;;14.60;99.90;;;;;;5073044;28;20423;-60
2021/10/13 12:06:01;;;;;;;4.00;2.70;;;16.50;99.90;;;;;;5073760;28;20436;-62
2021/10/13 12:08:35;;;;;;;9.67;3.27;;;18.80;99.00;;;;;;5072957;28;20404;-62
2021/10/13 12:11:09;;;;;;;3.53;2.80;;;19.70;96.60;;;;;;5072865;28;20443;-62
2021/10/13 12:13:40;;;;;;;3.30;2.10;;;19.50;96.30;;;;;;5072955;28;20989;-62
2021/10/13 12:16:08;;;;;;;5.60;1.77;;;19.90;94.90;;;;;;5073630;28;20989;-63
2021/10/13 12:18:36;;;;;;;2.30;0.90;;;20.50;92.90;;;;;;5072884;28;20495;-63
2021/10/13 12:21:02;;;;;;;2.07;1.37;;;21.50;91.70;;;;;;5072828;28;20975;-61
2021/10/13 12:23:31;;;;;;;1.70;1.03;;;21.50;90.40;;;;;;5072571;28;20432;-62
2021/10/13 12:25:58;;;;;;;1.00;0.90;;;19.90;90.90;;;;;;5072824;28;20174;-61
2021/10/13 12:28:29;;;;;;;2.33;1.20;;;18.90;91.50;;;;;;5072980;28;20409;-61
2021/10/13 12:31:02;;;;;;;2.50;1.60;;;18.20;93.50;;;;;;5072621;28;20444;-62
2021/10/13 12:33:42;;;;;;;2.60;1.60;;;17.90;93.80;;;;;;5072485;28;20416;-61
2021/10/13 12:36:34;;;;;;;3.37;1.90;;;18.30;95.10;;;;;;5074924;28;20737;-61
2021/10/13 12:39:03;;;;;;;2.60;1.40;;;18.20;95.20;;;;;;5075864;28;20392;-61
2021/10/13 12:41:34;;;;;;;3.97;1.30;;;17.40;94.60;;;;;;5073279;28;20401;-63
2021/10/13 12:44:10;;;;;;;1.63;1.27;;;16.80;95.90;;;;;;5076482;28;20475;-62
2021/10/13 12:46:36;;;;;;;2.63;1.30;;;15.90;95.60;;;;;;5076277;28;20970;-62